Time;durP1;ratioP1;P1;durP2;ratioP2;P2;SDS_P1;SDS_P2;PMS_P1;PMS_P2;Temp;Humidity;BMP_temperature;BMP_pressure;BME280_temperature;BME280_humidity;BME280_pressure;Samples;Min_cycle;Max_cycle;Signal;HPM_P1;HPM_P2
2022/11/02 00:02:21;;;;;;;17.40;2.77;;;15.80;72.70;;;;;;5036731;28;20478;-67
2022/11/02 00:04:49;;;;;;;8.30;1.93;;;15.70;72.80;;;;;;5036618;28;20490;-67
2022/11/02 00:07:16;;;;;;;8.90;2.33;;;15.70;73.20;;;;;;5035463;28;20452;-67
2022/11/02 00:09:42;;;;;;;11.50;1.80;;;15.70;73.10;;;;;;5035671;28;20442;-68
2022/11/02 00:12:09;;;;;;;7.67;1.90;;;15.70;73.20;;;;;;5036412;28;20467;-67
2022/11/02 00:14:36;;;;;;;8.30;2.07;;;15.70;73.30;;;;;;5036514;28;20424;-67
2022/11/02 00:17:03;;;;;;;6.13;1.60;;;15.70;73.00;;;;;;5035970;28;20443;-67
2022/11/02 00:19:30;;;;;;;10.07;2.17;;;15.70;73.00;;;;;;5035125;28;20447;-67
2022/11/02 00:22:01;;;;;;;4.77;1.87;;;15.70;73.10;;;;;;5031085;28;20547;-67
2022/11/02 00:24:28;;;;;;;8.30;2.13;;;15.70;73.80;;;;;;5033102;28;20467;-67
2022/11/02 00:26:55;;;;;;;8.00;2.40;;;15.70;73.80;;;;;;5033391;28;20443;-67
2022/11/02 00:29:23;;;;;;;4.57;2.13;;;15.70;74.20;;;;;;5034562;28;20446;-67
2022/11/02 00:31:49;;;;;;;7.20;2.17;;;15.70;73.60;;;;;;5034941;28;20451;-67
2022/11/02 00:34:16;;;;;;;14.50;2.70;;;15.70;73.90;;;;;;5032837;28;20456;-67
2022/11/02 00:36:43;;;;;;;7.40;2.20;;;15.70;73.80;;;;;;5017871;28;20454;-67
2022/11/02 00:39:11;;;;;;;7.07;1.93;;;15.70;73.60;;;;;;5035059;28;20446;-67
2022/11/02 00:41:38;;;;;;;12.33;2.77;;;15.80;73.30;;;;;;5035038;28;20923;-67
2022/11/02 00:44:05;;;;;;;7.33;2.20;;;15.70;73.40;;;;;;5034855;28;20951;-67
2022/11/02 00:46:31;;;;;;;6.50;1.80;;;15.70;73.70;;;;;;5035239;28;20486;-67
2022/11/02 00:48:58;;;;;;;12.67;2.40;;;15.70;74.00;;;;;;5035045;28;20450;-67
2022/11/02 00:51:25;;;;;;;7.40;2.13;;;15.70;74.00;;;;;;5035339;28;20448;-67
2022/11/02 00:53:51;;;;;;;7.57;1.80;;;15.70;73.80;;;;;;5035074;28;20471;-67
2022/11/02 00:56:19;;;;;;;12.40;2.50;;;15.60;74.00;;;;;;5035570;28;20454;-67
2022/11/02 00:58:46;;;;;;;8.17;2.90;;;15.60;74.10;;;;;;5035436;28;20448;-67
2022/11/02 01:01:14;;;;;;;4.67;1.87;;;15.60;74.40;;;;;;5035552;28;20455;-67
2022/11/02 01:03:41;;;;;;;7.30;1.97;;;15.50;74.40;;;;;;5035085;28;20471;-67
2022/11/02 01:06:09;;;;;;;13.13;2.20;;;15.50;75.10;;;;;;5035793;28;20480;-67
2022/11/02 01:08:36;;;;;;;6.90;2.03;;;15.40;75.20;;;;;;5035373;28;20461;-67
2022/11/02 01:11:10;;;;;;;9.10;2.73;;;15.40;75.40;;;;;;5035016;28;20451;-67
2022/11/02 01:13:38;;;;;;;6.57;2.53;;;15.40;75.60;;;;;;5035362;28;20466;-67
2022/11/02 01:16:06;;;;;;;9.70;1.77;;;15.40;75.60;;;;;;5035727;28;20440;-68
2022/11/02 01:18:33;;;;;;;7.20;2.03;;;15.40;75.70;;;;;;5034537;28;20811;-68
2022/11/02 01:21:00;;;;;;;12.63;2.53;;;15.40;75.90;;;;;;5035515;28;20454;-68
2022/11/02 01:23:27;;;;;;;5.27;2.30;;;15.40;76.00;;;;;;5035384;28;20468;-68
2022/11/02 01:25:53;;;;;;;4.83;1.70;;;15.40;76.30;;;;;;5034528;28;20479;-68
2022/11/02 01:28:20;;;;;;;9.83;1.97;;;15.30;76.30;;;;;;5034654;28;20434;-67
2022/11/02 01:30:48;;;;;;;8.73;2.50;;;15.40;76.40;;;;;;5034935;28;20448;-67
2022/11/02 01:33:15;;;;;;;6.33;1.60;;;15.40;76.40;;;;;;5034517;28;20493;-67
2022/11/02 01:35:42;;;;;;;7.90;2.43;;;15.40;76.50;;;;;;5033672;28;20467;-68
2022/11/02 01:38:08;;;;;;;9.20;1.97;;;15.40;76.60;;;;;;5034682;28;20455;-68
2022/11/02 01:40:36;;;;;;;10.77;2.63;;;15.40;76.80;;;;;;5034173;28;20458;-68
2022/11/02 01:43:18;;;;;;;8.80;2.17;;;15.40;76.80;;;;;;5033970;28;21033;-67
2022/11/02 01:45:47;;;;;;;10.43;2.43;;;15.40;76.90;;;;;;5033880;28;20471;-67
2022/11/02 01:48:14;;;;;;;7.37;2.20;;;15.40;76.90;;;;;;5035102;28;20459;-67
2022/11/02 01:50:42;;;;;;;8.10;3.27;;;15.40;76.80;;;;;;5033933;28;20452;-67
2022/11/02 01:53:09;;;;;;;11.80;2.73;;;15.30;76.80;;;;;;5034077;28;20467;-67
2022/11/02 01:55:37;;;;;;;9.77;2.67;;;15.30;77.20;;;;;;5034289;28;20430;-67
2022/11/02 01:58:09;;;;;;;12.60;2.50;;;15.30;77.20;;;;;;5033520;28;20452;-67
2022/11/02 02:00:37;;;;;;;13.57;1.73;;;15.20;77.60;;;;;;5034244;28;20419;-67
2022/11/02 02:03:09;;;;;;;8.80;2.77;;;15.30;77.40;;;;;;5034143;28;20538;-67
2022/11/02 02:05:41;;;;;;;8.67;2.50;;;15.20;77.80;;;;;;5034889;28;20455;-67
2022/11/02 02:08:08;;;;;;;6.10;1.90;;;15.20;78.20;;;;;;5034364;28;20432;-67
2022/11/02 02:10:36;;;;;;;10.80;2.37;;;15.10;77.80;;;;;;5033628;28;20443;-67
2022/11/02 02:13:05;;;;;;;11.30;2.20;;;15.10;78.20;;;;;;5033937;28;20527;-67
2022/11/02 02:15:42;;;;;;;7.00;2.40;;;15.10;78.20;;;;;;5033663;28;20444;-67
2022/11/02 02:18:16;;;;;;;11.37;3.07;;;15.10;78.30;;;;;;5033817;28;20441;-68
2022/11/02 02:21:00;;;;;;;10.23;1.77;;;15.10;78.80;;;;;;5032926;28;20435;-67
2022/11/02 02:23:44;;;;;;;9.57;2.30;;;15.10;78.60;;;;;;5032875;28;20467;-67
2022/11/02 02:26:42;;;;;;;8.70;2.40;;;15.10;78.20;;;;;;5033613;28;20468;-68
2022/11/02 02:29:12;;;;;;;10.40;3.13;;;15.10;79.10;;;;;;5032690;28;20446;-67
2022/11/02 02:31:45;;;;;;;8.30;2.40;;;15.20;78.30;;;;;;5033700;28;20432;-67
2022/11/02 02:34:18;;;;;;;7.57;1.80;;;15.20;78.50;;;;;;5033685;28;20460;-67
2022/11/02 02:36:50;;;;;;;10.23;2.70;;;15.10;78.30;;;;;;5033706;28;20436;-67
2022/11/02 02:39:23;;;;;;;8.40;2.40;;;15.10;78.50;;;;;;5033917;28;20447;-68
2022/11/02 02:41:58;;;;;;;8.70;2.10;;;15.00;78.60;;;;;;5034093;28;20415;-66
2022/11/02 02:44:29;;;;;;;7.60;2.27;;;14.90;78.60;;;;;;5032731;28;20439;-67
2022/11/02 02:46:59;;;;;;;10.33;2.10;;;14.90;78.80;;;;;;5032338;28;20459;-67
2022/11/02 02:49:29;;;;;;;7.70;2.10;;;14.90;78.30;;;;;;5033476;28;20455;-67
2022/11/02 02:51:57;;;;;;;16.47;2.20;;;14.90;78.40;;;;;;5033668;28;20475;-67
2022/11/02 02:54:31;;;;;;;6.40;1.97;;;14.90;78.60;;;;;;5032921;28;20814;-67
2022/11/02 02:57:03;;;;;;;10.40;2.47;;;14.90;78.60;;;;;;5032121;28;20433;-67
2022/11/02 02:59:33;;;;;;;9.03;1.90;;;14.90;78.80;;;;;;5032448;28;20459;-67
2022/11/02 03:02:00;;;;;;;7.77;2.20;;;14.80;78.60;;;;;;5032522;28;21008;-66
2022/11/02 03:04:27;;;;;;;12.30;2.67;;;14.80;79.00;;;;;;5033616;28;20440;-67
2022/11/02 03:06:58;;;;;;;10.50;2.37;;;14.90;78.80;;;;;;5032985;28;20479;-67
2022/11/02 03:09:31;;;;;;;8.83;1.83;;;14.90;78.70;;;;;;5032679;28;20432;-67
2022/11/02 03:12:11;;;;;;;8.67;2.30;;;14.90;78.60;;;;;;5032295;28;20474;-67
2022/11/02 03:14:49;;;;;;;12.90;2.20;;;14.80;78.70;;;;;;5033855;28;20818;-67
2022/11/02 03:17:25;;;;;;;3.70;1.50;;;14.80;79.80;;;;;;5033066;28;20428;-67
2022/11/02 03:20:00;;;;;;;15.23;3.03;;;14.80;79.30;;;;;;5032424;28;20431;-67
2022/11/02 03:22:33;;;;;;;10.00;1.70;;;14.80;79.60;;;;;;5032909;28;20478;-67
2022/11/02 03:25:07;;;;;;;10.77;2.20;;;14.80;79.90;;;;;;5032237;28;20418;-67
2022/11/02 03:27:39;;;;;;;7.50;1.77;;;14.70;80.30;;;;;;5031960;28;20438;-68
2022/11/02 03:30:11;;;;;;;5.00;1.80;;;14.70;80.20;;;;;;5032210;28;20442;-68
2022/11/02 03:32:47;;;;;;;8.20;2.23;;;14.70;80.00;;;;;;5032396;28;20479;-67
2022/11/02 03:35:18;;;;;;;8.33;1.80;;;14.70;79.90;;;;;;5032564;28;20469;-68
2022/11/02 03:37:48;;;;;;;8.47;1.97;;;14.80;80.00;;;;;;5031971;28;20439;-68
2022/11/02 03:40:20;;;;;;;8.77;2.30;;;14.70;78.60;;;;;;5032221;28;20458;-67
2022/11/02 03:42:49;;;;;;;7.67;2.90;;;14.70;78.30;;;;;;5031911;28;20471;-68
2022/11/02 03:45:20;;;;;;;6.87;1.90;;;14.60;78.30;;;;;;5031336;28;20541;-67
2022/11/02 03:47:53;;;;;;;9.00;1.77;;;14.60;78.90;;;;;;5031827;28;20451;-67
2022/11/02 03:50:22;;;;;;;6.27;1.70;;;14.50;78.90;;;;;;5031438;28;20445;-67
2022/11/02 03:52:55;;;;;;;11.70;1.90;;;14.50;79.00;;;;;;5032404;28;20466;-67
2022/11/02 03:55:28;;;;;;;7.80;1.80;;;14.50;78.90;;;;;;5032141;28;20441;-68
2022/11/02 03:57:55;;;;;;;6.93;2.17;;;14.50;79.00;;;;;;5032345;28;20444;-67
2022/11/02 04:00:25;;;;;;;8.87;1.87;;;14.50;78.90;;;;;;5032514;28;20451;-67
2022/11/02 04:02:54;;;;;;;8.83;1.73;;;14.50;79.10;;;;;;5031425;28;20458;-67
2022/11/02 04:05:27;;;;;;;4.93;1.80;;;14.50;79.10;;;;;;5031711;28;20431;-67
2022/11/02 04:14:36;;;;;;;7.40;2.00;;;14.50;79.20;;;;;;5035307;28;20411;-66
2022/11/02 04:16:13;;;;;;;7.67;2.30;;;14.50;80.60;;;;;;5034798;28;20429;-67
2022/11/02 04:21:38;;;;;;;11.63;2.27;;;14.40;81.00;;;;;;4983418;28;20425;-67
2022/11/02 04:26:50;;;;;;;6.73;1.93;;;14.40;81.50;;;;;;5017879;28;20525;-67
2022/11/02 04:29:17;;;;;;;10.47;2.53;;;14.40;81.80;;;;;;5035567;28;20455;-67
2022/11/02 04:31:45;;;;;;;13.10;1.87;;;14.40;82.20;;;;;;5035317;28;20443;-67
2022/11/02 04:34:10;;;;;;;7.57;1.40;;;14.40;82.50;;;;;;5035123;28;20464;-66
2022/11/02 04:36:37;;;;;;;6.23;1.80;;;14.30;82.60;;;;;;5035315;28;20482;-67
2022/11/02 04:39:03;;;;;;;8.77;1.87;;;14.30;82.60;;;;;;5035057;28;20219;-67
2022/11/02 04:41:41;;;;;;;7.23;2.80;;;14.30;82.20;;;;;;5035519;28;20486;-66
2022/11/02 04:44:09;;;;;;;10.17;2.63;;;14.30;82.10;;;;;;5035255;28;20197;-67
2022/11/02 04:46:37;;;;;;;6.27;2.03;;;14.10;81.80;;;;;;5034710;28;20493;-67
2022/11/02 04:49:06;;;;;;;7.07;2.33;;;14.00;82.10;;;;;;5034386;28;20452;-68
2022/11/02 04:51:34;;;;;;;9.53;1.70;;;14.00;82.50;;;;;;5034495;28;20444;-67
2022/11/02 04:54:01;;;;;;;11.20;2.23;;;14.00;82.30;;;;;;5034468;28;20825;-67
2022/11/02 04:56:29;;;;;;;8.73;1.90;;;14.00;82.20;;;;;;5034506;28;20451;-67
2022/11/02 04:58:57;;;;;;;16.00;2.07;;;14.00;82.90;;;;;;5034869;28;20455;-67
2022/11/02 05:01:26;;;;;;;16.13;1.90;;;14.00;82.10;;;;;;5035491;28;20451;-67
2022/11/02 05:03:54;;;;;;;9.00;2.50;;;13.90;82.00;;;;;;5034992;28;20469;-68
2022/11/02 05:06:23;;;;;;;9.90;2.23;;;13.90;82.00;;;;;;5034131;28;20487;-68
2022/11/02 05:08:50;;;;;;;6.93;2.17;;;13.90;81.70;;;;;;5034143;28;20451;-68
2022/11/02 05:11:17;;;;;;;12.17;2.10;;;13.90;81.70;;;;;;5034276;28;20437;-66
2022/11/02 05:13:44;;;;;;;7.93;2.80;;;13.90;81.40;;;;;;5034930;28;20471;-67
2022/11/02 05:16:13;;;;;;;9.20;2.07;;;13.90;81.60;;;;;;5034658;28;20475;-67
2022/11/02 05:18:39;;;;;;;15.67;2.10;;;13.80;81.30;;;;;;5033577;28;20455;-67
2022/11/02 05:21:06;;;;;;;14.97;3.03;;;13.80;81.10;;;;;;5017649;28;20444;-67
2022/11/02 05:23:34;;;;;;;14.07;2.50;;;13.80;81.30;;;;;;5034607;28;20549;-67
2022/11/02 05:26:03;;;;;;;8.83;2.07;;;13.80;81.60;;;;;;5034281;28;20486;-68
2022/11/02 05:28:31;;;;;;;19.80;2.63;;;13.80;81.70;;;;;;5034258;28;20466;-68
2022/11/02 05:30:59;;;;;;;13.23;2.83;;;13.80;81.60;;;;;;5033814;28;20610;-66
2022/11/02 05:33:27;;;;;;;21.67;2.73;;;13.70;81.70;;;;;;5015997;28;20506;-67
2022/11/02 05:35:55;;;;;;;17.13;3.20;;;13.80;81.60;;;;;;5033158;28;20446;-67
2022/11/02 05:38:22;;;;;;;14.97;2.10;;;13.70;81.50;;;;;;5033726;28;20447;-67
2022/11/02 05:40:53;;;;;;;22.37;3.00;;;13.70;81.50;;;;;;5033382;28;20504;-68
2022/11/02 05:43:20;;;;;;;13.73;2.30;;;13.70;82.50;;;;;;5033823;28;20502;-67
2022/11/02 05:45:52;;;;;;;17.93;2.07;;;13.70;82.60;;;;;;5033224;28;20431;-67
2022/11/02 05:48:19;;;;;;;10.30;2.60;;;13.60;81.60;;;;;;5033721;28;20444;-67
2022/11/02 05:50:46;;;;;;;9.43;2.80;;;13.70;81.90;;;;;;5033482;28;20457;-67
2022/11/02 05:53:13;;;;;;;15.10;2.63;;;13.60;81.70;;;;;;5033998;28;20542;-67
2022/11/02 05:55:39;;;;;;;11.63;2.77;;;13.60;82.00;;;;;;5033996;28;20427;-67
2022/11/02 05:58:07;;;;;;;8.60;2.40;;;13.60;82.20;;;;;;5034282;28;20439;-67
2022/11/02 06:00:34;;;;;;;7.70;1.90;;;13.60;82.10;;;;;;5033913;28;20466;-67
2022/11/02 06:03:01;;;;;;;7.53;2.13;;;13.60;82.20;;;;;;5033928;28;20470;-67
2022/11/02 06:05:28;;;;;;;20.10;3.17;;;13.60;82.50;;;;;;5035136;28;20445;-67
2022/11/02 06:07:58;;;;;;;11.40;3.13;;;13.60;82.50;;;;;;5034249;28;20497;-67
2022/11/02 06:10:25;;;;;;;16.80;3.27;;;13.60;82.50;;;;;;5033537;28;20432;-67
2022/11/02 06:12:54;;;;;;;14.47;2.50;;;13.70;82.70;;;;;;5033139;28;20469;-68
2022/11/02 06:15:22;;;;;;;14.43;3.10;;;13.60;82.60;;;;;;5033335;28;20478;-68
2022/11/02 06:17:50;;;;;;;13.00;2.60;;;13.60;83.00;;;;;;5033196;28;20446;-68
2022/11/02 06:20:17;;;;;;;11.83;2.33;;;13.50;83.10;;;;;;5032868;28;20452;-67
2022/11/02 06:22:44;;;;;;;8.50;1.80;;;13.50;83.20;;;;;;5032825;28;20468;-67
2022/11/02 06:25:12;;;;;;;12.00;1.80;;;13.50;83.30;;;;;;5032731;28;20448;-67
2022/11/02 06:27:40;;;;;;;14.10;2.27;;;13.50;83.60;;;;;;5032891;28;20483;-67
2022/11/02 06:30:08;;;;;;;10.80;2.70;;;13.50;83.60;;;;;;5032786;28;20447;-67
2022/11/02 06:32:36;;;;;;;20.53;3.60;;;13.50;83.50;;;;;;5033226;28;20473;-67
2022/11/02 06:35:03;;;;;;;12.60;2.30;;;13.50;83.60;;;;;;5033395;28;20433;-67
2022/11/02 06:37:33;;;;;;;16.03;2.30;;;13.50;83.50;;;;;;5033563;28;20486;-67
2022/11/02 06:40:00;;;;;;;9.50;2.23;;;13.50;83.70;;;;;;5032974;28;20962;-66
2022/11/02 06:42:27;;;;;;;15.33;2.23;;;13.50;83.80;;;;;;5032233;28;20497;-67
2022/11/02 06:44:54;;;;;;;12.43;2.93;;;13.40;84.00;;;;;;5033170;28;20442;-67
2022/11/02 06:47:20;;;;;;;12.30;2.10;;;13.40;84.30;;;;;;5032651;28;20489;-68
2022/11/02 06:49:48;;;;;;;12.80;2.93;;;13.40;84.10;;;;;;5033597;28;20448;-67
2022/11/02 06:52:15;;;;;;;14.17;2.57;;;13.40;84.50;;;;;;5032512;28;20472;-68
2022/11/02 06:54:42;;;;;;;12.53;2.53;;;13.40;84.60;;;;;;5032824;28;20448;-68
2022/11/02 06:57:08;;;;;;;13.80;2.10;;;13.50;84.50;;;;;;5032809;28;20444;-67
2022/11/02 06:59:36;;;;;;;16.60;2.93;;;13.40;84.60;;;;;;5032621;28;20466;-67
2022/11/02 07:02:02;;;;;;;14.47;2.20;;;13.40;84.40;;;;;;5031951;28;20474;-67
2022/11/02 07:04:29;;;;;;;9.50;2.17;;;13.40;84.60;;;;;;5032932;28;20451;-67
2022/11/02 07:06:57;;;;;;;16.40;2.47;;;13.40;84.90;;;;;;5031883;28;20483;-67
2022/11/02 07:09:24;;;;;;;7.10;2.20;;;13.30;85.10;;;;;;5032509;28;20833;-67
2022/11/02 07:11:51;;;;;;;14.13;2.20;;;13.30;85.50;;;;;;5032434;28;20461;-67
2022/11/02 07:14:18;;;;;;;9.77;2.57;;;13.30;85.40;;;;;;5032409;28;20458;-67
2022/11/02 07:16:44;;;;;;;17.10;2.57;;;13.30;85.20;;;;;;5033172;28;20449;-67
2022/11/02 07:19:11;;;;;;;8.40;2.20;;;13.30;85.20;;;;;;5035784;28;20824;-68
2022/11/02 07:21:38;;;;;;;6.43;2.10;;;13.30;85.40;;;;;;5034476;28;20441;-67
2022/11/02 07:24:06;;;;;;;14.00;2.43;;;13.30;85.40;;;;;;5031211;28;20451;-67
2022/11/02 07:26:33;;;;;;;16.17;4.10;;;13.40;85.20;;;;;;5031461;28;20487;-67
2022/11/02 07:29:00;;;;;;;10.33;2.50;;;13.40;85.00;;;;;;5014314;28;20447;-67
2022/11/02 07:31:27;;;;;;;9.47;2.43;;;13.40;85.40;;;;;;5029528;28;20492;-68
2022/11/02 07:33:53;;;;;;;13.30;3.53;;;13.40;85.40;;;;;;5029854;28;20482;-67
2022/11/02 07:36:20;;;;;;;12.90;1.90;;;13.40;85.40;;;;;;5028888;28;20450;-69
2022/11/02 07:38:47;;;;;;;11.10;1.70;;;13.40;85.20;;;;;;5029862;28;20435;-67
2022/11/02 07:41:15;;;;;;;12.33;2.80;;;13.30;85.20;;;;;;5030909;28;20447;-67
2022/11/02 07:43:42;;;;;;;8.27;2.80;;;13.40;85.70;;;;;;5032945;28;20479;-67
2022/11/02 07:46:09;;;;;;;11.27;3.23;;;13.40;85.40;;;;;;5033592;28;20462;-67
2022/11/02 07:48:35;;;;;;;12.40;2.27;;;13.40;85.60;;;;;;5033704;28;20523;-67
2022/11/02 07:51:02;;;;;;;8.67;2.20;;;13.50;85.90;;;;;;5032991;28;20454;-67
2022/11/02 07:53:29;;;;;;;19.63;4.20;;;13.50;85.50;;;;;;5033284;28;20463;-67
2022/11/02 07:55:56;;;;;;;16.17;2.43;;;13.50;85.50;;;;;;5032504;28;20446;-67
2022/11/02 07:58:24;;;;;;;8.40;2.03;;;13.50;85.30;;;;;;5032562;28;20447;-67
2022/11/02 08:00:50;;;;;;;10.33;2.63;;;13.50;85.00;;;;;;5033460;28;20821;-67
2022/11/02 08:03:17;;;;;;;10.30;2.00;;;13.60;85.20;;;;;;5034071;28;20476;-67
2022/11/02 08:05:44;;;;;;;13.07;2.57;;;13.60;84.70;;;;;;5034581;28;20950;-67
2022/11/02 08:08:13;;;;;;;8.27;2.10;;;13.60;84.60;;;;;;5035275;28;20490;-67
2022/11/02 08:10:40;;;;;;;9.27;1.80;;;13.70;84.60;;;;;;5034299;28;20931;-68
2022/11/02 08:13:07;;;;;;;10.30;2.50;;;13.70;84.90;;;;;;5034458;28;20480;-67
2022/11/02 08:15:36;;;;;;;11.90;2.90;;;13.60;84.90;;;;;;5034372;28;20458;-68
2022/11/02 08:18:04;;;;;;;9.10;1.70;;;13.70;85.00;;;;;;5033555;28;20446;-68
2022/11/02 08:20:32;;;;;;;13.23;2.47;;;13.80;85.30;;;;;;5036472;28;20454;-67
2022/11/02 08:22:58;;;;;;;16.07;3.20;;;13.80;84.80;;;;;;5033828;28;20469;-67
2022/11/02 08:25:25;;;;;;;19.57;3.37;;;13.70;84.30;;;;;;5032757;28;20458;-67
2022/11/02 08:27:55;;;;;;;11.07;2.70;;;13.80;85.90;;;;;;5030505;28;20482;-67
2022/11/02 08:30:22;;;;;;;16.77;3.70;;;13.80;84.90;;;;;;5030381;28;20455;-67
2022/11/02 08:32:50;;;;;;;9.43;2.43;;;13.90;84.90;;;;;;5030021;28;20475;-67
2022/11/02 08:35:17;;;;;;;9.87;2.77;;;13.90;84.40;;;;;;5033061;28;20434;-67
2022/11/02 08:37:43;;;;;;;8.50;2.13;;;14.00;84.90;;;;;;5033409;28;20441;-67
2022/11/02 08:40:11;;;;;;;12.30;2.50;;;14.00;84.30;;;;;;5033773;28;20452;-67
2022/11/02 08:42:38;;;;;;;15.93;2.90;;;14.00;84.30;;;;;;5034984;28;20500;-66
2022/11/02 08:45:06;;;;;;;18.50;3.50;;;14.00;83.80;;;;;;5034278;28;20454;-66
2022/11/02 08:47:33;;;;;;;9.33;2.40;;;14.00;85.00;;;;;;5033931;28;20480;-68
2022/11/02 08:50:01;;;;;;;12.20;3.50;;;14.00;84.80;;;;;;5033582;28;20455;-67
2022/11/02 08:52:28;;;;;;;10.47;2.77;;;14.00;83.90;;;;;;5034045;28;20478;-66
2022/11/02 08:54:54;;;;;;;12.80;2.17;;;14.00;83.80;;;;;;5032360;28;20480;-66
2022/11/02 08:57:21;;;;;;;12.57;3.30;;;14.00;84.50;;;;;;5033183;28;20457;-66
2022/11/02 08:59:48;;;;;;;10.80;2.50;;;14.10;84.20;;;;;;5034318;28;20447;-66
2022/11/02 09:02:14;;;;;;;13.90;2.50;;;14.10;84.30;;;;;;5033832;28;20479;-66
2022/11/02 09:04:41;;;;;;;17.10;3.07;;;14.10;83.80;;;;;;5033850;28;20452;-68
2022/11/02 09:07:09;;;;;;;14.90;3.20;;;14.20;84.40;;;;;;5034904;28;20476;-68
2022/11/02 09:09:36;;;;;;;9.23;2.67;;;14.30;83.70;;;;;;5035194;28;20453;-68
2022/11/02 09:12:02;;;;;;;10.23;2.17;;;14.30;82.50;;;;;;5033735;28;20455;-66
2022/11/02 09:14:29;;;;;;;9.70;2.90;;;14.40;83.40;;;;;;5034097;28;20449;-66
2022/11/02 09:16:56;;;;;;;11.03;2.40;;;14.40;82.20;;;;;;5034381;28;20452;-67
2022/11/02 09:19:22;;;;;;;10.40;2.10;;;14.40;82.90;;;;;;5032883;28;20451;-67
2022/11/02 09:21:50;;;;;;;12.73;2.43;;;14.50;81.40;;;;;;5033212;28;20453;-66
2022/11/02 09:24:18;;;;;;;9.60;2.07;;;14.50;80.90;;;;;;5032690;28;20455;-66
2022/11/02 09:26:47;;;;;;;7.97;1.93;;;14.50;80.30;;;;;;5032505;28;20459;-66
2022/11/02 09:29:13;;;;;;;14.13;2.37;;;14.60;81.10;;;;;;5032310;28;20458;-68
2022/11/02 09:31:40;;;;;;;8.50;2.30;;;14.60;80.40;;;;;;5032599;28;20454;-66
2022/11/02 09:34:07;;;;;;;7.00;1.60;;;14.60;80.80;;;;;;5032846;28;20466;-66
2022/11/02 09:36:34;;;;;;;8.63;2.13;;;14.70;79.30;;;;;;5033333;28;20459;-66
2022/11/02 09:39:01;;;;;;;12.00;3.50;;;14.80;79.10;;;;;;5033051;28;20465;-66
2022/11/02 09:41:34;;;;;;;7.00;2.70;;;14.90;79.60;;;;;;5015364;28;20466;-66
2022/11/02 09:44:07;;;;;;;9.43;2.23;;;14.90;78.10;;;;;;5032506;28;20427;-66
2022/11/02 09:46:37;;;;;;;8.73;2.53;;;15.00;78.20;;;;;;5034034;28;20450;-66
2022/11/02 09:49:06;;;;;;;14.40;2.50;;;15.00;77.90;;;;;;5032170;28;21013;-67
2022/11/02 09:51:35;;;;;;;10.73;2.37;;;15.00;78.90;;;;;;5032308;28;20454;-66
2022/11/02 09:54:09;;;;;;;7.97;2.30;;;15.00;77.50;;;;;;5032554;28;20453;-67
2022/11/02 09:56:37;;;;;;;12.80;2.57;;;15.00;77.80;;;;;;5032578;28;20803;-67
2022/11/02 09:59:06;;;;;;;13.90;2.57;;;15.10;77.60;;;;;;5033073;28;20451;-67
2022/11/02 10:02:01;;;;;;;9.50;1.87;;;15.20;77.70;;;;;;5033232;28;21005;-67
2022/11/02 10:04:44;;;;;;;8.30;1.83;;;15.20;77.20;;;;;;5020009;28;20465;-66
2022/11/02 10:07:21;;;;;;;16.43;2.40;;;15.30;76.60;;;;;;5032311;28;20477;-66
2022/11/02 10:09:54;;;;;;;13.93;2.10;;;15.30;75.10;;;;;;5031976;28;20450;-66
2022/11/02 10:12:28;;;;;;;14.23;3.00;;;15.40;74.70;;;;;;5032451;28;20478;-66
2022/11/02 10:15:02;;;;;;;12.10;2.37;;;15.40;75.50;;;;;;5033068;28;20438;-67
2022/11/02 10:17:33;;;;;;;11.20;2.30;;;15.50;73.10;;;;;;5034272;28;20463;-68
2022/11/02 10:20:05;;;;;;;11.10;2.30;;;15.60;73.00;;;;;;5033311;28;20451;-66
2022/11/02 10:22:35;;;;;;;11.83;2.60;;;15.60;73.10;;;;;;5034424;28;20482;-66
2022/11/02 10:25:05;;;;;;;10.93;2.00;;;15.80;72.50;;;;;;5038184;28;20760;-67
2022/11/02 10:27:38;;;;;;;16.47;3.33;;;15.90;71.50;;;;;;5032519;28;20547;-67
2022/11/02 10:30:06;;;;;;;11.90;2.40;;;16.10;69.70;;;;;;5032520;28;20441;-67
2022/11/02 10:32:37;;;;;;;12.70;2.50;;;16.20;68.80;;;;;;5031288;28;20464;-66
2022/11/02 10:35:10;;;;;;;8.87;1.60;;;16.30;69.40;;;;;;5032518;28;20436;-67
2022/11/02 10:37:55;;;;;;;6.67;1.80;;;16.30;65.30;;;;;;5032487;28;20439;-68
2022/11/02 10:40:36;;;;;;;11.13;3.10;;;16.30;66.30;;;;;;5032350;28;20428;-66
2022/11/02 10:43:18;;;;;;;14.37;2.10;;;16.40;66.70;;;;;;5024572;28;20474;-68
2022/11/02 10:46:04;;;;;;;8.20;1.97;;;16.40;64.80;;;;;;5013890;28;20919;-68
2022/11/02 10:48:40;;;;;;;11.70;2.50;;;16.50;65.40;;;;;;5014265;28;20467;-68
2022/11/02 10:51:09;;;;;;;19.10;1.93;;;16.50;64.40;;;;;;5014199;28;20436;-68
2022/11/02 10:53:39;;;;;;;9.67;1.90;;;16.60;64.10;;;;;;5014044;28;20479;-68
2022/11/02 10:56:14;;;;;;;8.20;2.87;;;16.70;64.20;;;;;;5014462;28;20435;-69
2022/11/02 10:58:49;;;;;;;14.03;2.40;;;17.10;62.80;;;;;;4997698;28;20428;-69
2022/11/02 11:01:16;;;;;;;5.30;1.70;;;17.40;59.70;;;;;;5014038;28;20432;-68
2022/11/02 11:03:55;;;;;;;8.93;2.53;;;17.70;59.50;;;;;;5013742;28;20869;-68
2022/11/02 11:06:23;;;;;;;10.73;2.47;;;17.90;59.90;;;;;;5014011;28;20447;-68
2022/11/02 11:08:52;;;;;;;10.33;2.30;;;18.20;59.60;;;;;;5013965;28;20459;-69
2022/11/02 11:11:22;;;;;;;12.73;2.00;;;18.50;58.50;;;;;;5013860;28;20464;-69
2022/11/02 11:13:59;;;;;;;8.43;2.00;;;19.00;57.60;;;;;;5014115;28;20463;-69
2022/11/02 11:16:38;;;;;;;8.37;1.80;;;19.50;56.30;;;;;;5013547;28;20432;-69
2022/11/02 11:19:07;;;;;;;8.40;2.70;;;20.10;54.00;;;;;;5013693;28;20448;-69
2022/11/02 11:21:39;;;;;;;9.40;1.43;;;20.50;51.90;;;;;;5013722;28;20454;-69
2022/11/02 11:24:27;;;;;;;6.57;1.90;;;20.80;51.00;;;;;;5013534;28;20569;-69
2022/11/02 11:27:14;;;;;;;14.30;2.20;;;21.00;51.40;;;;;;5014056;28;20860;-69
2022/11/02 11:29:48;;;;;;;6.80;1.77;;;21.00;49.30;;;;;;5013806;28;20424;-69
2022/11/02 11:32:17;;;;;;;7.00;2.37;;;21.30;48.80;;;;;;5013989;28;20495;-70
2022/11/02 11:34:47;;;;;;;6.00;1.90;;;21.30;48.20;;;;;;5013745;28;20527;-69
2022/11/02 11:37:16;;;;;;;7.67;2.73;;;21.40;48.00;;;;;;5013462;28;20963;-69
2022/11/02 11:39:46;;;;;;;8.73;2.80;;;21.40;47.40;;;;;;5013344;28;20432;-69
2022/11/02 11:42:19;;;;;;;12.73;2.53;;;21.20;48.10;;;;;;5013248;28;20889;-68
2022/11/02 11:44:56;;;;;;;8.67;2.17;;;21.10;48.50;;;;;;5027130;28;20439;-68
2022/11/02 11:47:28;;;;;;;5.53;2.20;;;20.90;49.70;;;;;;5031139;28;20424;-70
2022/11/02 11:49:57;;;;;;;10.43;2.23;;;20.50;50.10;;;;;;5032308;28;20454;-70
2022/11/02 11:52:27;;;;;;;6.43;1.80;;;19.90;51.90;;;;;;5029703;28;20446;-73
2022/11/02 11:54:56;;;;;;;11.53;2.50;;;19.40;52.70;;;;;;5032728;28;20428;-73
2022/11/02 11:57:28;;;;;;;8.83;3.00;;;19.30;53.40;;;;;;5037728;28;20432;-73
2022/11/02 11:59:58;;;;;;;9.73;2.40;;;19.10;53.30;;;;;;5037473;28;20418;-71
2022/11/02 12:02:27;;;;;;;5.27;1.70;;;18.80;53.50;;;;;;5034588;28;20471;-76
2022/11/02 12:05:00;;;;;;;8.43;2.20;;;18.40;54.90;;;;;;5027604;28;20454;-75
2022/11/02 12:07:52;;;;;;;9.07;1.73;;;18.30;55.60;;;;;;5032521;28;20849;-71
2022/11/02 12:10:24;;;;;;;13.20;2.90;;;18.40;56.00;;;;;;5033212;28;20436;-71
2022/11/02 12:13:05;;;;;;;12.37;2.57;;;18.40;55.20;;;;;;5036579;28;20474;-73
2022/11/02 12:15:48;;;;;;;14.53;2.20;;;18.30;55.60;;;;;;5036394;28;20440;-72
2022/11/02 12:18:30;;;;;;;8.57;2.03;;;18.20;55.20;;;;;;5031435;28;20411;-74
2022/11/02 12:21:09;;;;;;;10.67;2.70;;;18.00;55.30;;;;;;5035482;28;20428;-73
2022/11/02 12:24:07;;;;;;;8.33;2.00;;;18.20;55.80;;;;;;5022495;28;20996;-72
2022/11/02 12:26:50;;;;;;;12.10;3.10;;;18.50;55.70;;;;;;5032608;28;20436;-72
2022/11/02 12:29:52;;;;;;;8.27;2.20;;;18.80;54.70;;;;;;5028639;28;20474;-76
2022/11/02 12:32:38;;;;;;;7.43;2.67;;;18.80;54.40;;;;;;5032774;28;20538;-77
2022/11/02 12:35:19;;;;;;;15.00;2.70;;;18.60;54.60;;;;;;5031645;28;20408;-74
2022/11/02 12:38:08;;;;;;;9.30;2.10;;;18.40;55.60;;;;;;5025908;28;20432;-76
2022/11/02 12:40:49;;;;;;;9.33;2.07;;;18.30;56.00;;;;;;5025620;28;20416;-77
2022/11/02 12:43:32;;;;;;;12.70;2.43;;;18.20;56.70;;;;;;5030305;28;20455;-77
2022/11/02 12:46:04;;;;;;;7.03;2.47;;;18.20;56.60;;;;;;5041559;28;20432;-73
2022/11/02 12:48:46;;;;;;;14.40;2.40;;;18.30;56.20;;;;;;5041437;28;20455;-72
2022/11/02 12:51:18;;;;;;;10.13;2.40;;;18.70;55.10;;;;;;5039548;28;20408;-71
2022/11/02 12:53:50;;;;;;;10.03;2.63;;;19.20;54.60;;;;;;5035318;28;20481;-71
2022/11/02 12:56:21;;;;;;;8.90;2.50;;;19.40;53.30;;;;;;5033976;28;20432;-70
2022/11/02 12:58:48;;;;;;;8.57;2.90;;;19.80;53.10;;;;;;5038042;28;20435;-69
2022/11/02 13:01:21;;;;;;;8.27;2.70;;;20.20;51.60;;;;;;5037170;28;20435;-71
2022/11/02 13:03:54;;;;;;;9.17;2.27;;;20.90;50.40;;;;;;5036306;28;20478;-70
2022/11/02 13:06:25;;;;;;;7.30;2.00;;;21.10;48.90;;;;;;5033398;28;20436;-71
2022/11/02 13:08:56;;;;;;;5.47;2.10;;;21.00;48.10;;;;;;5037294;28;20472;-70
2022/11/02 13:11:30;;;;;;;6.80;2.80;;;20.60;48.40;;;;;;5038188;28;20430;-70